createdAt,value
2023-01-20T00:02:35.592Z,11.77
2023-01-20T00:06:37.826Z,10.90
2023-01-20T00:10:39.897Z,9.77
2023-01-20T00:14:42.049Z,21.98
2023-01-20T00:18:44.458Z,7.78
2023-01-20T00:22:46.479Z,7.47
2023-01-20T00:26:48.833Z,9.38
2023-01-20T00:30:50.908Z,7.90
2023-01-20T00:34:52.990Z,6.60
2023-01-20T00:38:55.334Z,8.52
2023-01-20T00:42:57.397Z,9.75
2023-01-20T00:46:59.468Z,9.57
2023-01-20T00:51:02.524Z,11.85
2023-01-20T00:55:04.958Z,8.38
2023-01-20T00:59:07.077Z,15.55
2023-01-20T01:03:12.500Z,8.48
2023-01-20T01:07:18.898Z,8.80
2023-01-20T01:11:23.148Z,7.32
2023-01-20T01:15:25.418Z,6.53
2023-01-20T01:19:27.522Z,6.38
2023-01-20T01:23:29.643Z,5.40
2023-01-20T01:27:31.807Z,6.63
2023-01-20T01:31:33.953Z,9.05
2023-01-20T01:35:36.020Z,8.07
2023-01-20T01:39:38.029Z,9.65
2023-01-20T01:43:41.104Z,7.97
2023-01-20T01:47:44.177Z,11.80
2023-01-20T01:52:11.229Z,9.88
2023-01-20T01:56:14.881Z,10.45
2023-01-20T02:00:17.087Z,9.50
2023-01-20T02:04:22.010Z,9.98
2023-01-20T02:08:25.632Z,11.63
2023-01-20T02:12:29.666Z,13.37
2023-01-20T02:16:35.454Z,12.40
2023-01-20T02:21:15.356Z,11.57
2023-01-20T02:25:23.348Z,13.32
2023-01-20T02:29:54.622Z,12.98
2023-01-20T02:34:06.357Z,11.25
2023-01-20T02:38:26.656Z,11.55
2023-01-20T02:42:34.765Z,11.18
2023-01-20T02:46:43.327Z,11.80
2023-01-20T02:51:09.571Z,11.23
2023-01-20T02:55:19.503Z,12.73
2023-01-20T02:59:26.729Z,11.68
2023-01-20T03:03:35.276Z,11.77
2023-01-20T03:07:40.224Z,13.55
2023-01-20T03:11:52.722Z,11.40
2023-01-20T03:16:01.273Z,12.55
2023-01-20T03:20:03.959Z,10.73
2023-01-20T03:24:07.426Z,15.45
2023-01-20T03:28:09.564Z,16.50
2023-01-20T03:32:12.393Z,17.65
2023-01-20T03:36:16.638Z,16.33
2023-01-20T03:40:18.987Z,14.48
2023-01-20T03:44:35.307Z,12.70
2023-01-20T03:48:46.594Z,15.73
2023-01-20T03:53:24.021Z,16.08
2023-01-20T03:57:32.990Z,14.90
2023-01-20T04:01:42.413Z,15.80
2023-01-20T04:05:46.666Z,11.57
2023-01-20T04:09:54.856Z,7.28
2023-01-20T04:13:57.236Z,10.52
2023-01-20T04:18:14.808Z,10.63
2023-01-20T04:22:28.377Z,11.60
2023-01-20T04:26:30.476Z,9.75
2023-01-20T04:30:32.549Z,11.75
2023-01-20T04:34:34.621Z,11.70
2023-01-20T04:38:36.808Z,12.48
2023-01-20T04:42:39.717Z,13.27
2023-01-20T04:46:42.034Z,11.38
2023-01-20T04:50:44.156Z,10.10
2023-01-20T04:54:46.213Z,11.00
2023-01-20T04:58:48.525Z,11.38
2023-01-20T05:02:50.878Z,11.00
2023-01-20T05:06:52.976Z,15.88
2023-01-20T05:10:55.091Z,15.18
2023-01-20T05:14:58.278Z,14.90
2023-01-20T05:19:01.339Z,14.10
2023-01-20T05:23:03.800Z,14.80
2023-01-20T05:27:05.903Z,17.27
2023-01-20T05:31:08.169Z,10.50
2023-01-20T05:35:10.491Z,11.15
2023-01-20T05:39:12.542Z,11.52
2023-01-20T05:43:14.655Z,14.18
2023-01-20T05:47:16.780Z,12.68
2023-01-20T05:51:19.752Z,17.13
2023-01-20T05:55:21.839Z,15.10
2023-01-20T05:59:24.092Z,19.25
2023-01-20T06:03:26.474Z,18.48
2023-01-20T06:07:29.795Z,24.00
2023-01-20T06:11:31.862Z,19.73
2023-01-20T06:16:13.669Z,18.95
2023-01-20T06:20:16.455Z,14.73
2023-01-20T06:24:18.653Z,14.30
2023-01-20T06:28:20.840Z,16.63
2023-01-20T06:32:22.884Z,15.23
2023-01-20T06:36:24.911Z,17.17
2023-01-20T06:40:27.009Z,17.60
2023-01-20T06:44:29.884Z,20.90
2023-01-20T06:48:36.410Z,17.23
2023-01-20T06:52:38.408Z,18.23
2023-01-20T06:56:40.507Z,17.10
2023-01-20T07:00:42.649Z,16.67
2023-01-20T07:04:44.728Z,18.13
2023-01-20T07:08:47.073Z,14.35
2023-01-20T07:12:49.267Z,14.27
2023-01-20T07:16:51.519Z,12.02
2023-01-20T07:20:56.735Z,12.90
2023-01-20T07:24:59.102Z,14.20
2023-01-20T07:29:01.135Z,14.73
2023-01-20T07:33:03.250Z,15.20
2023-01-20T07:37:05.333Z,16.45
2023-01-20T07:41:11.940Z,15.55
2023-01-20T07:45:14.596Z,17.92
2023-01-20T07:49:16.884Z,17.50
2023-01-20T07:53:18.966Z,22.70
2023-01-20T07:57:21.037Z,18.88
2023-01-20T08:01:29.049Z,17.55
2023-01-20T08:05:32.510Z,16.08
2023-01-20T08:09:34.725Z,19.33
2023-01-20T08:13:36.795Z,20.08
2023-01-20T08:17:38.849Z,24.98
2023-01-20T08:21:40.857Z,24.52
2023-01-20T08:25:43.123Z,23.55
2023-01-20T08:29:46.589Z,22.45
2023-01-20T08:33:52.174Z,22.20
2023-01-20T08:37:54.616Z,21.95
2023-01-20T08:41:56.696Z,23.42
2023-01-20T08:46:01.021Z,21.80
2023-01-20T08:50:05.495Z,17.00
2023-01-20T08:54:07.827Z,17.83
2023-01-20T08:58:10.070Z,23.38
2023-01-20T09:02:12.592Z,15.65
2023-01-20T09:06:14.962Z,12.45
2023-01-20T09:10:17.221Z,9.13
2023-01-20T09:14:25.440Z,7.57
2023-01-20T09:18:27.896Z,12.38
2023-01-20T09:22:30.055Z,10.65
2023-01-20T09:26:38.564Z,8.73
2023-01-20T09:30:43.010Z,8.13
2023-01-20T09:34:45.174Z,8.43
2023-01-20T09:39:05.870Z,10.73
2023-01-20T09:43:45.603Z,8.48
2023-01-20T09:47:49.219Z,7.85
2023-01-20T09:52:13.099Z,6.77
2023-01-20T09:56:21.467Z,9.88
2023-01-20T10:00:26.807Z,7.95
2023-01-20T10:04:57.370Z,9.15
2023-01-20T10:09:06.276Z,6.65
2023-01-20T10:13:41.379Z,5.60
2023-01-20T10:17:48.616Z,6.82
2023-01-20T10:22:01.482Z,5.80
2023-01-20T10:26:13.776Z,9.80
2023-01-20T10:30:31.481Z,5.30
2023-01-20T10:34:44.157Z,5.47
2023-01-20T10:38:54.701Z,4.88
2023-01-20T10:42:59.192Z,6.63
2023-01-20T10:51:31.199Z,7.53
2023-01-20T10:56:05.663Z,5.45
2023-01-20T11:00:22.670Z,5.72
2023-01-20T11:04:25.308Z,7.45
2023-01-20T11:08:29.710Z,4.10
2023-01-20T11:12:37.174Z,5.72
2023-01-20T11:16:42.288Z,5.40
2023-01-20T11:20:53.283Z,4.60
2023-01-20T11:24:59.048Z,5.50
2023-01-20T11:29:02.645Z,5.35
2023-01-20T11:33:21.267Z,5.63
2023-01-20T11:37:27.098Z,4.70
2023-01-20T11:41:31.390Z,5.60
2023-01-20T11:45:36.394Z,3.92
2023-01-20T11:53:40.445Z,4.80
2023-01-20T11:58:08.461Z,4.88
2023-01-20T12:02:10.522Z,4.50
2023-01-20T12:06:25.389Z,6.53
2023-01-20T12:10:30.800Z,3.83
2023-01-20T12:14:49.610Z,4.90
2023-01-20T12:19:03.464Z,4.35
2023-01-20T12:23:39.323Z,5.50
2023-01-20T12:27:49.110Z,3.55
2023-01-20T12:31:51.331Z,3.40
2023-01-20T12:36:13.270Z,2.03
2023-01-20T12:40:21.540Z,2.53
2023-01-20T12:45:01.205Z,1.50
2023-01-20T12:49:25.469Z,0.40
2023-01-20T12:53:27.585Z,1.43
2023-01-20T12:57:38.654Z,0.82
2023-01-20T13:02:07.444Z,1.13
2023-01-20T13:06:19.375Z,1.15
2023-01-20T13:10:50.871Z,0.38
2023-01-20T13:15:02.503Z,0.85
2023-01-20T13:19:16.429Z,0.30
2023-01-20T13:23:30.731Z,0.70
2023-01-20T13:27:36.164Z,0.68
2023-01-20T13:31:38.324Z,2.45
2023-01-20T13:35:40.646Z,0.20
2023-01-20T13:39:46.650Z,0.38
2023-01-20T13:43:50.675Z,0.45
2023-01-20T13:48:10.864Z,0.65
2023-01-20T13:52:13.072Z,0.90
2023-01-20T13:56:35.402Z,1.30
2023-01-20T14:00:37.839Z,1.20
2023-01-20T14:04:45.510Z,0.22
2023-01-20T14:08:50.830Z,0.28
2023-01-20T14:12:52.997Z,0.13
2023-01-20T14:17:03.673Z,0.40
2023-01-20T14:21:21.434Z,0.30
2023-01-20T14:25:26.816Z,0.00
2023-01-20T14:29:28.859Z,0.32
2023-01-20T14:33:31.068Z,0.28
2023-01-20T14:37:37.158Z,0.30
2023-01-20T14:41:50.347Z,0.30
2023-01-20T14:45:52.997Z,1.65
2023-01-20T14:49:55.944Z,0.10
2023-01-20T14:54:35.259Z,0.40
2023-01-20T14:58:46.377Z,0.65
2023-01-20T15:03:11.750Z,0.52
2023-01-20T15:07:19.566Z,0.30
2023-01-20T15:11:31.654Z,0.50
2023-01-20T15:15:33.753Z,1.85
2023-01-20T15:19:35.902Z,2.25
2023-01-20T15:23:42.292Z,0.75
2023-01-20T15:27:44.343Z,0.60
2023-01-20T15:31:46.520Z,0.32
2023-01-20T15:36:37.093Z,0.60
2023-01-20T15:40:39.826Z,0.40
2023-01-20T15:44:44.353Z,0.63
2023-01-20T15:48:46.788Z,1.40
2023-01-20T15:52:49.506Z,0.50
2023-01-20T15:56:51.529Z,1.05
2023-01-20T16:00:55.707Z,0.57
2023-01-20T16:04:58.064Z,0.50
2023-01-20T16:09:16.050Z,0.30
2023-01-20T16:13:18.168Z,1.63
2023-01-20T16:17:21.684Z,0.90
2023-01-20T16:21:24.111Z,1.02
2023-01-20T16:25:27.033Z,1.25
2023-01-20T16:29:29.157Z,1.17
2023-01-20T16:33:31.460Z,1.70
2023-01-20T16:37:33.678Z,0.50
2023-01-20T16:41:37.013Z,2.15
2023-01-20T16:45:39.176Z,1.67
2023-01-20T16:49:41.282Z,1.17
2023-01-20T16:53:43.349Z,3.58
2023-01-20T16:57:45.613Z,0.57
2023-01-20T17:01:49.301Z,1.20
2023-01-20T17:05:51.413Z,0.63
2023-01-20T17:09:53.484Z,10.20
2023-01-20T17:13:56.462Z,1.67
2023-01-20T17:17:58.880Z,3.10
2023-01-20T17:22:01.315Z,0.28
2023-01-20T17:26:04.750Z,1.08
2023-01-20T17:30:11.807Z,0.77
2023-01-20T17:34:15.543Z,0.90
2023-01-20T17:38:17.916Z,4.30
2023-01-20T17:42:20.208Z,1.00
2023-01-20T17:46:25.228Z,1.75
2023-01-20T17:50:27.282Z,1.13
2023-01-20T17:54:29.399Z,3.63
2023-01-20T17:58:31.394Z,0.70
2023-01-20T18:02:33.520Z,0.95
2023-01-20T18:06:37.567Z,0.70
2023-01-20T18:10:39.661Z,0.93
2023-01-20T18:14:41.822Z,0.47
2023-01-20T18:18:45.643Z,1.17
2023-01-20T18:22:50.364Z,0.63
2023-01-20T18:26:52.420Z,0.63
2023-01-20T18:31:08.244Z,1.10
2023-01-20T18:35:10.446Z,3.70
2023-01-20T18:39:16.895Z,1.52
2023-01-20T18:43:19.045Z,1.77
2023-01-20T18:47:21.243Z,1.55
2023-01-20T18:51:26.832Z,2.42
2023-01-20T18:55:31.660Z,0.52
2023-01-20T18:59:33.670Z,1.20
2023-01-20T19:03:36.801Z,0.77
2023-01-20T19:07:42.534Z,1.10
2023-01-20T19:11:45.916Z,0.70
2023-01-20T19:15:48.019Z,1.42
2023-01-20T19:19:50.907Z,1.85
2023-01-20T19:23:59.754Z,1.50
2023-01-20T19:28:05.455Z,0.75
2023-01-20T19:32:08.546Z,0.32
2023-01-20T19:36:13.732Z,0.20
2023-01-20T19:40:16.917Z,0.90
2023-01-20T19:44:19.906Z,0.93
2023-01-20T19:48:22.150Z,0.82
2023-01-20T19:52:24.219Z,1.10
2023-01-20T19:56:28.667Z,0.57
2023-01-20T20:00:30.994Z,0.68
2023-01-20T20:04:33.021Z,0.47
2023-01-20T20:08:37.891Z,0.70
2023-01-20T20:12:40.123Z,0.52
2023-01-20T20:16:42.869Z,0.60
2023-01-20T20:20:45.053Z,1.73
2023-01-20T20:24:47.417Z,2.42
2023-01-20T20:28:51.192Z,0.80
2023-01-20T20:32:53.203Z,1.23
2023-01-20T20:36:55.355Z,2.00
2023-01-20T20:40:58.520Z,1.55
2023-01-20T20:45:00.922Z,1.77
2023-01-20T20:49:03.591Z,1.48
2023-01-20T20:53:05.726Z,2.22
2023-01-20T20:57:07.812Z,3.33
2023-01-20T21:01:15.707Z,3.15
2023-01-20T21:05:19.089Z,1.33
2023-01-20T21:09:21.474Z,1.30
2023-01-20T21:13:23.545Z,2.40
2023-01-20T21:17:25.659Z,0.52
2023-01-20T21:21:30.848Z,1.60
2023-01-20T21:25:33.012Z,1.50
2023-01-20T21:29:35.136Z,1.90
2023-01-20T21:33:38.905Z,1.40
2023-01-20T21:37:40.956Z,1.40
2023-01-20T21:41:43.868Z,1.35
2023-01-20T21:45:53.012Z,2.33
2023-01-20T21:50:13.836Z,1.48
2023-01-20T21:54:16.224Z,2.53
2023-01-20T21:58:18.594Z,1.65
2023-01-20T22:02:21.000Z,1.17
2023-01-20T22:06:23.334Z,1.85
2023-01-20T22:10:25.418Z,2.45
2023-01-20T22:14:28.405Z,1.88
2023-01-20T22:18:31.338Z,1.77
2023-01-20T22:22:33.667Z,2.28
2023-01-20T22:26:35.746Z,1.83
2023-01-20T22:30:38.267Z,3.05
2023-01-20T22:34:40.379Z,0.85
2023-01-20T22:38:43.109Z,2.17
2023-01-20T22:42:45.812Z,1.42
2023-01-20T22:46:47.981Z,1.85
2023-01-20T22:50:50.166Z,2.50
2023-01-20T22:54:52.516Z,3.40
2023-01-20T22:58:56.737Z,2.15
2023-01-20T23:02:58.741Z,1.98
2023-01-20T23:07:00.825Z,1.40
2023-01-20T23:11:09.368Z,1.80
2023-01-20T23:15:11.417Z,0.73
2023-01-20T23:19:14.069Z,2.15
2023-01-20T23:35:41.987Z,2.25
2023-01-20T23:39:43.953Z,4.20
2023-01-20T23:43:46.154Z,1.48
2023-01-20T23:47:48.522Z,1.88
2023-01-20T23:51:50.857Z,3.75
2023-01-20T23:55:53.245Z,3.80
2023-01-20T23:59:55.272Z,2.22
